Prospector, Canada
Current Conditions -  °F | °C
As of 8:00 PM on Friday 21 Nov 2014 (Local Time) from CYQD Reporting Station
Overcast Overcast  
Wind Chill: 12°   Ceiling: 1300
Heat Index: 23°   Visibility: 15mi
Dew Point: 19°   Wind: 10mph
Humidity: 86%   Direction: 330°NNW
Pressure: 29.54"   Gusts: NA
Location:  52.95°N, 101.27°W
Report Text: CYQD 220200Z 33009KT 15SM OVC013 M05/M07 A2954 RMK SC8 SLP022
Loading
Personal Weather Stations






























Interactive Weather Map New forecast layout! Learn more

10-Day Weather Forecast

Advertisements
Track Severe Weather on mobile